Aeroporto :
LOGIN :

Iscrizione | Disclaimer

   EN    FR    IT 

 










Sommario :    VFR   VFR Marginale   IFR   IFR Intensivo   IFR Molto Intensivo
Visibilità : 
Base nubi : 
>= 8 km
>= 3000ft
5 / 8 km
1000 / 3000 ft
1500m / 5 km
500 / 1000 ft
800 / 1500m
200 / 500 ft
< 800m
< 200 ft
Simboli :   Temporali  Nebbia  Neve Forte  Precipitazioni Forti  Vento > 20 kt
SIGMETs :   Varie  Temporali  Ghiacco  Turbolenza  Onda orograficha  Ceneri Vulcaniche






- Altitudine del aeroporto : 295 ft
- Codice IATA : BWE


EDVE - Braunschweig

ULTIMO METAR :
  • 171250Z 05004KT 310V110 9999 BKN019 BKN056 03/01 Q1011

METARs OBSOLETI :
  • 171220Z VRB03KT 9999 BKN020 04/02 Q1011
  • 171150Z VRB03KT 9999 BKN024 04/01 Q1012
  • 171120Z VRB03KT 9999 BKN029 OVC035 04/01 Q1012
  • 171050Z 00000KT 9000 BKN038 OVC098 03/01 Q1012
  • 171020Z VRB02KT 9999 FEW045 BKN098 03/01 Q1013

TAF TAF EDVE
Valido dal 17 a 12 ore il 17 a 21 ore UTC


171100Z 1712/1721 05004KT 8000 SCT020 BKN035
BECMG 1713/1715 BKN012
TEMPO 1713/1716 4000 -RADZ BKN007
BECMG 1716/1718 3500 BR OVC006
TEMPO 1716/1721 2000 -DZ OVC003



MetMap, La meteo Aeronautica in un colpo d'occhio ! - Copyright ORBIFLY Dicembre 2007 - Disclaimer

ORBIFLY MET'MAP TEAM :

Programmazione e sviluppo : Alexandra Zaïnal
Concezione e sviluppo : Baudouin d'Aumeries
Co-Programmazione e sviluppo : Marc-Olivier Méhu
Supporto tecnico e logistico : Manuel Goepfert
Aiuto per la traduzione : Arnaldo La Scala

Contatto : metmap@orbifly.com




FONTI E CREDITI :

   NOAA